Airport View

Enter AWOS ICAO identifier for current METAR.

ex. KFNL

KBDU 251012Z AUTO 03007KT 3SM -SN BKN007 OVC024 M07/M09 A3012 RMK AO2

25 Oct 2020 10:25

Frequency: 118.825

Phone: 303-541-9540

Other Area AWOS: KLMO - KEIK - KBJC - KFNL

TAF AMD KBJC 250904Z 2509/2606 01012KT 3SM -SN BR BKN007 OVC012 FM251300 36012G18KT 2SM -SN BR OVC008 FM251800 36010KT 1SM -SN BR OVC006 TEMPO 2520/2524 1/2SM SN VV002 FM260400 02008KT 2SM -SN BR BKN008 OVC012